Time;durP1;ratioP1;P1;durP2;ratioP2;P2;SDS_P1;SDS_P2;PMS_P1;PMS_P2;Temp;Humidity;BMP_temperature;BMP_pressure;BME280_temperature;BME280_humidity;BME280_pressure;Samples;Min_cycle;Max_cycle;Signal;HPM_P1;HPM_P2
2021/10/28 00:14:32;;;;;;;1.42;1.33;;;7.80;99.90;;;;;;5033835;28;20072;-65
2021/10/28 00:16:59;;;;;;;0.20;0.20;;;7.70;99.90;;;;;;5032724;28;20044;-65
2021/10/28 00:19:28;;;;;;;0.00;0.00;;;7.80;99.90;;;;;;5033221;28;20025;-65
2021/10/28 00:21:56;;;;;;;0.20;0.20;;;7.80;99.90;;;;;;5032693;28;20033;-66
2021/10/28 00:24:22;;;;;;;0.00;0.00;;;8.00;99.90;;;;;;5033024;28;20026;-66
2021/10/28 00:26:49;;;;;;;0.30;0.30;;;8.00;99.90;;;;;;5033651;28;20025;-65
2021/10/28 00:29:20;;;;;;;0.82;0.40;;;8.00;99.90;;;;;;5032528;28;20680;-66
2021/10/28 00:31:47;;;;;;;0.20;0.20;;;8.10;99.90;;;;;;5033906;28;20025;-66
2021/10/28 00:34:15;;;;;;;0.17;0.17;;;7.90;99.90;;;;;;5033888;28;20572;-65
2021/10/28 00:36:45;;;;;;;9.38;1.58;;;7.90;99.90;;;;;;5033675;28;20499;-65
2021/10/28 00:39:11;;;;;;;0.10;0.10;;;8.00;99.90;;;;;;5032354;28;20025;-66
2021/10/28 00:41:38;;;;;;;1.55;1.45;;;8.00;99.90;;;;;;5032065;28;20112;-66
2021/10/28 00:44:05;;;;;;;0.20;0.20;;;8.00;99.90;;;;;;5033335;28;20029;-65
2021/10/28 00:46:35;;;;;;;2.00;1.38;;;8.10;99.90;;;;;;5033326;28;20040;-65
2021/10/28 00:49:05;;;;;;;0.20;0.20;;;8.00;99.90;;;;;;5032179;28;20510;-65
2021/10/28 00:51:32;;;;;;;0.30;0.30;;;8.00;99.90;;;;;;5033269;28;20386;-65
2021/10/28 00:54:00;;;;;;;0.10;0.10;;;8.00;99.90;;;;;;5033066;28;20091;-65
2021/10/28 00:56:28;;;;;;;0.25;0.25;;;7.70;99.90;;;;;;5033115;28;20033;-66
2021/10/28 00:58:54;;;;;;;0.03;0.03;;;7.80;99.90;;;;;;5032102;28;20041;-66
2021/10/28 01:01:20;;;;;;;0.10;0.10;;;7.70;99.90;;;;;;5033318;28;20026;-66
2021/10/28 01:03:46;;;;;;;3.63;1.17;;;7.60;99.90;;;;;;5032895;28;20068;-66
2021/10/28 01:06:13;;;;;;;0.20;0.20;;;7.70;99.90;;;;;;5033086;28;20109;-66
2021/10/28 01:08:44;;;;;;;0.10;0.10;;;7.60;99.90;;;;;;5031575;28;20034;-66
2021/10/28 01:11:11;;;;;;;4.13;0.70;;;7.60;99.90;;;;;;5031860;28;20065;-66
2021/10/28 01:13:38;;;;;;;0.20;0.20;;;7.50;99.90;;;;;;5031467;28;20063;-66
2021/10/28 01:16:06;;;;;;;0.30;0.25;;;7.50;99.90;;;;;;5032939;28;20029;-66
2021/10/28 01:18:35;;;;;;;0.20;0.20;;;7.40;99.90;;;;;;5031559;28;20034;-66
2021/10/28 01:21:03;;;;;;;0.57;0.57;;;7.40;99.90;;;;;;5032634;28;20049;-66
2021/10/28 01:23:28;;;;;;;0.65;0.65;;;7.30;99.90;;;;;;5031613;28;20044;-65
2021/10/28 01:25:59;;;;;;;0.43;0.43;;;7.20;99.90;;;;;;5032387;28;20227;-66
2021/10/28 01:28:29;;;;;;;0.32;0.32;;;7.30;99.90;;;;;;5032607;28;20529;-66
2021/10/28 01:31:01;;;;;;;0.20;0.20;;;7.30;99.90;;;;;;5032466;28;20529;-66
2021/10/28 01:33:28;;;;;;;0.15;0.15;;;7.30;99.90;;;;;;5032646;28;20214;-66
2021/10/28 01:35:54;;;;;;;0.63;0.63;;;7.30;99.90;;;;;;5031131;28;20383;-66
2021/10/28 01:38:22;;;;;;;0.00;0.00;;;7.20;99.90;;;;;;5032726;28;20029;-66
2021/10/28 01:40:58;;;;;;;1.02;0.82;;;7.20;99.90;;;;;;5032602;28;20037;-66
2021/10/28 01:43:26;;;;;;;1.25;0.90;;;7.20;99.90;;;;;;5031054;28;20438;-65
2021/10/28 01:45:52;;;;;;;0.32;0.32;;;7.10;99.90;;;;;;5032300;28;20025;-66
2021/10/28 01:48:18;;;;;;;0.10;0.10;;;7.10;99.90;;;;;;5030997;28;20117;-66
2021/10/28 01:50:46;;;;;;;0.70;0.70;;;7.10;99.90;;;;;;5032133;28;20060;-66
2021/10/28 01:53:13;;;;;;;1.88;1.17;;;7.20;99.90;;;;;;5032491;28;20029;-66
2021/10/28 01:55:39;;;;;;;0.47;0.38;;;7.10;99.90;;;;;;5032428;28;20092;-66
2021/10/28 01:58:07;;;;;;;0.15;0.15;;;7.10;99.90;;;;;;5032473;28;20030;-66
2021/10/28 02:00:35;;;;;;;2.72;0.70;;;7.20;99.90;;;;;;5032151;28;20116;-66
2021/10/28 02:03:01;;;;;;;3.10;0.82;;;7.20;99.90;;;;;;5032060;28;20352;-66
2021/10/28 02:05:27;;;;;;;0.95;0.95;;;7.10;99.90;;;;;;5032209;28;20506;-66
2021/10/28 02:07:53;;;;;;;0.20;0.20;;;7.10;99.90;;;;;;5047241;28;20037;-66
2021/10/28 02:10:20;;;;;;;0.95;0.75;;;7.00;99.90;;;;;;5032250;28;20113;-66
2021/10/28 02:12:48;;;;;;;0.00;0.00;;;7.00;99.90;;;;;;5030683;28;20036;-66
2021/10/28 02:15:18;;;;;;;0.20;0.20;;;7.00;99.90;;;;;;5030947;28;20068;-66
2021/10/28 02:17:46;;;;;;;0.38;0.35;;;7.00;99.90;;;;;;5032095;28;20026;-66
2021/10/28 02:20:14;;;;;;;0.00;0.00;;;6.90;99.90;;;;;;5030899;28;20045;-66
2021/10/28 02:22:42;;;;;;;0.43;0.32;;;7.00;99.90;;;;;;5031922;28;20041;-66
2021/10/28 02:25:10;;;;;;;0.00;0.00;;;7.00;99.90;;;;;;5031021;28;20033;-66
2021/10/28 02:27:36;;;;;;;0.22;0.22;;;6.80;99.90;;;;;;5030858;28;20451;-66
2021/10/28 02:30:05;;;;;;;0.13;0.13;;;6.90;99.90;;;;;;5030774;28;20030;-66
2021/10/28 02:32:31;;;;;;;0.25;0.25;;;6.80;99.90;;;;;;5030898;28;20037;-66
2021/10/28 02:34:57;;;;;;;0.25;0.25;;;6.70;99.90;;;;;;5032018;28;20032;-66
2021/10/28 02:37:23;;;;;;;0.00;0.00;;;6.60;99.90;;;;;;5031020;28;20041;-66
2021/10/28 02:39:50;;;;;;;0.00;0.00;;;6.70;99.90;;;;;;5031754;28;20018;-66
2021/10/28 02:42:17;;;;;;;0.10;0.10;;;6.70;99.90;;;;;;5030813;28;20026;-66
2021/10/28 02:44:44;;;;;;;0.10;0.10;;;6.70;99.90;;;;;;5031940;28;20038;-66
2021/10/28 02:47:11;;;;;;;7.68;1.20;;;6.80;99.90;;;;;;5030620;28;20041;-66
2021/10/28 02:49:38;;;;;;;1.35;1.27;;;6.80;99.90;;;;;;5034678;28;20037;-66
2021/10/28 02:52:05;;;;;;;0.40;0.20;;;6.80;99.90;;;;;;5034477;28;20021;-66
2021/10/28 02:54:32;;;;;;;0.10;0.10;;;6.80;99.90;;;;;;5035372;28;20040;-66
2021/10/28 02:56:58;;;;;;;0.70;0.70;;;6.80;99.90;;;;;;5035354;28;20386;-66
2021/10/28 02:59:23;;;;;;;0.20;0.20;;;6.70;99.90;;;;;;5050795;28;20041;-65
2021/10/28 03:01:52;;;;;;;0.63;0.50;;;6.60;99.90;;;;;;5034035;28;20026;-66
2021/10/28 03:04:21;;;;;;;0.10;0.10;;;6.60;99.90;;;;;;5017952;28;20037;-66
2021/10/28 03:06:48;;;;;;;0.32;0.32;;;6.60;99.90;;;;;;5035024;28;20026;-66
2021/10/28 03:09:21;;;;;;;0.22;0.22;;;6.60;99.90;;;;;;5035150;28;20029;-66
2021/10/28 03:11:48;;;;;;;0.55;0.55;;;6.60;99.90;;;;;;5035165;28;20030;-66
2021/10/28 03:14:18;;;;;;;1.08;1.08;;;6.50;99.90;;;;;;5034221;28;20479;-66
2021/10/28 03:19:30;;;;;;;0.57;0.57;;;6.40;99.90;;;;;;5035328;28;20053;-66
2021/10/28 03:27:28;;;;;;;0.00;0.00;;;6.30;99.90;;;;;;5034344;28;20545;-66
2021/10/28 03:29:55;;;;;;;0.10;0.10;;;6.40;99.90;;;;;;5034586;28;20033;-66
2021/10/28 03:32:23;;;;;;;0.70;0.70;;;6.40;99.90;;;;;;5033617;28;20475;-65
2021/10/28 03:34:49;;;;;;;0.95;0.80;;;6.20;99.90;;;;;;5033374;28;20037;-66
2021/10/28 03:37:21;;;;;;;0.10;0.10;;;6.10;99.90;;;;;;5034769;28;20122;-66
2021/10/28 03:40:12;;;;;;;0.20;0.20;;;6.20;99.90;;;;;;5034542;28;20037;-66
2021/10/28 04:28:54;;;;;;;1.75;1.55;;;5.70;99.90;;;;;;5011494;28;20049;-66
2021/10/28 04:31:22;;;;;;;0.47;0.47;;;5.60;99.90;;;;;;5028718;28;20613;-65
2021/10/28 04:33:48;;;;;;;0.00;0.00;;;5.70;99.90;;;;;;5027919;28;20102;-66
2021/10/28 04:36:14;;;;;;;2.05;1.95;;;5.50;99.90;;;;;;5038739;28;20037;-65
2021/10/28 04:38:40;;;;;;;1.65;1.58;;;5.60;99.90;;;;;;5030672;28;20489;-68
2021/10/28 04:41:06;;;;;;;2.28;2.15;;;5.80;99.90;;;;;;5014368;28;20457;-64
2021/10/28 04:43:32;;;;;;;0.82;0.82;;;5.70;99.90;;;;;;5031004;28;20116;-64
2021/10/28 04:45:57;;;;;;;0.30;0.30;;;5.80;99.90;;;;;;5030660;28;20069;-64
2021/10/28 04:48:23;;;;;;;0.17;0.17;;;5.70;99.90;;;;;;5031176;28;20045;-65
2021/10/28 04:50:50;;;;;;;0.47;0.35;;;5.80;99.90;;;;;;5030815;28;20053;-66
2021/10/28 04:53:16;;;;;;;0.30;0.30;;;5.80;99.90;;;;;;5035711;28;20044;-65
2021/10/28 04:55:42;;;;;;;0.45;0.45;;;5.80;99.90;;;;;;5053260;28;20493;-65
2021/10/28 04:58:08;;;;;;;0.40;0.40;;;6.00;99.90;;;;;;5051907;28;20032;-65
2021/10/28 05:00:35;;;;;;;0.82;0.80;;;6.10;99.90;;;;;;5057084;28;20119;-63
2021/10/28 05:03:00;;;;;;;0.20;0.20;;;6.00;99.90;;;;;;5072898;28;20380;-62
2021/10/28 05:05:26;;;;;;;1.45;0.55;;;5.90;99.90;;;;;;5071633;28;20029;-63
2021/10/28 05:07:52;;;;;;;10.90;6.60;;;5.90;99.90;;;;;;5072909;28;20036;-63
2021/10/28 05:10:18;;;;;;;1.20;1.10;;;5.90;99.90;;;;;;5072627;28;20033;-62
2021/10/28 05:12:44;;;;;;;0.30;0.30;;;6.00;99.90;;;;;;5072641;28;20028;-63
2021/10/28 05:15:10;;;;;;;0.10;0.10;;;6.00;99.90;;;;;;5072403;28;20036;-63
2021/10/28 05:17:36;;;;;;;0.55;0.55;;;6.00;99.90;;;;;;5072640;28;20044;-63
2021/10/28 05:20:03;;;;;;;0.22;0.22;;;6.00;99.90;;;;;;5071341;28;20048;-63
2021/10/28 05:22:29;;;;;;;0.35;0.35;;;6.00;99.90;;;;;;5071274;28;20029;-63
2021/10/28 05:24:54;;;;;;;1.55;0.43;;;5.90;99.90;;;;;;5072283;28;20035;-63
2021/10/28 05:27:20;;;;;;;0.10;0.10;;;5.80;99.90;;;;;;5072487;28;20044;-63
2021/10/28 05:29:46;;;;;;;1.38;1.27;;;5.80;99.90;;;;;;5072632;28;20124;-63
2021/10/28 05:32:12;;;;;;;0.20;0.20;;;5.50;99.90;;;;;;5054482;28;20465;-63
2021/10/28 05:34:38;;;;;;;5.63;1.58;;;5.80;99.90;;;;;;5052235;28;20067;-63
2021/10/28 05:37:05;;;;;;;0.20;0.20;;;5.80;99.90;;;;;;5067317;28;20037;-63
2021/10/28 05:39:31;;;;;;;0.10;0.10;;;5.90;99.90;;;;;;5052229;28;20025;-63
2021/10/28 05:41:57;;;;;;;1.77;1.55;;;5.90;99.90;;;;;;5066901;28;20029;-64
2021/10/28 05:44:23;;;;;;;0.10;0.10;;;5.90;99.90;;;;;;5051101;28;20048;-64
2021/10/28 05:46:48;;;;;;;0.10;0.10;;;5.80;99.90;;;;;;5033830;28;20021;-64
2021/10/28 05:49:15;;;;;;;1.20;1.10;;;5.80;99.90;;;;;;5052031;28;20036;-62
2021/10/28 05:51:41;;;;;;;0.20;0.20;;;5.70;99.90;;;;;;5052380;28;20029;-62
2021/10/28 05:54:07;;;;;;;0.52;0.52;;;5.50;99.90;;;;;;5052188;28;20094;-62
2021/10/28 05:56:33;;;;;;;0.10;0.10;;;5.50;99.90;;;;;;5052265;28;20040;-62
2021/10/28 05:58:59;;;;;;;0.38;0.38;;;5.40;99.90;;;;;;5050564;28;20037;-62
2021/10/28 06:01:25;;;;;;;1.48;1.08;;;5.40;99.90;;;;;;5061976;28;20032;-62
2021/10/28 06:03:51;;;;;;;0.98;0.98;;;5.20;99.90;;;;;;5071978;28;20186;-61
2021/10/28 06:06:16;;;;;;;0.47;0.47;;;5.10;99.90;;;;;;5072263;28;20107;-62
2021/10/28 06:08:43;;;;;;;0.10;0.10;;;5.10;99.90;;;;;;5072055;28;20033;-61
2021/10/28 06:11:09;;;;;;;0.80;0.80;;;5.20;99.90;;;;;;5053934;28;20066;-61
2021/10/28 06:13:42;;;;;;;0.63;0.63;;;5.30;99.90;;;;;;5072241;28;20071;-60
2021/10/28 06:16:09;;;;;;;0.30;0.30;;;5.30;99.90;;;;;;5087314;28;20386;-58
2021/10/28 06:18:38;;;;;;;0.15;0.15;;;5.30;99.90;;;;;;5056042;28;20029;-61
2021/10/28 06:21:05;;;;;;;1.23;1.17;;;5.20;99.90;;;;;;5051718;28;20498;-64
2021/10/28 06:23:31;;;;;;;0.68;0.68;;;5.10;99.90;;;;;;5054203;28;20037;-66
2021/10/28 06:25:57;;;;;;;0.20;0.20;;;5.20;99.90;;;;;;5054446;28;20433;-64
2021/10/28 06:28:23;;;;;;;0.00;0.00;;;5.30;99.90;;;;;;5054866;28;20037;-62
2021/10/28 06:30:49;;;;;;;6.97;2.05;;;5.40;99.90;;;;;;5054589;28;20102;-62
2021/10/28 06:33:23;;;;;;;0.13;0.13;;;5.40;99.90;;;;;;5055553;28;20533;-63
2021/10/28 06:35:49;;;;;;;0.10;0.10;;;5.40;99.90;;;;;;5070531;28;20033;-62
2021/10/28 06:38:15;;;;;;;0.30;0.30;;;5.50;99.90;;;;;;5065077;28;20742;-63
2021/10/28 06:40:40;;;;;;;0.32;0.32;;;5.50;99.90;;;;;;5054188;28;20039;-62
2021/10/28 06:43:07;;;;;;;0.55;0.47;;;5.30;99.90;;;;;;5054794;28;20025;-62
2021/10/28 06:45:34;;;;;;;0.03;0.03;;;5.40;99.90;;;;;;5055579;28;20033;-62
2021/10/28 06:48:00;;;;;;;0.40;0.40;;;5.30;99.90;;;;;;5054070;28;20078;-63
2021/10/28 06:50:36;;;;;;;0.10;0.10;;;5.10;99.90;;;;;;5054265;28;20028;-63
2021/10/28 06:53:23;;;;;;;0.17;0.17;;;5.20;99.90;;;;;;5054070;28;20044;-63
2021/10/28 06:55:56;;;;;;;0.10;0.10;;;5.40;99.90;;;;;;5055291;28;20036;-63
2021/10/28 07:04:10;;;;;;;0.00;0.00;;;5.50;99.90;;;;;;5052836;28;20444;-62
2021/10/28 07:06:39;;;;;;;0.32;0.32;;;5.30;99.90;;;;;;5052765;28;20167;-62
2021/10/28 07:09:20;;;;;;;3.13;1.77;;;5.30;99.90;;;;;;5042960;28;20134;-62
2021/10/28 07:11:59;;;;;;;0.00;0.00;;;5.30;99.90;;;;;;5054216;28;20025;-62
2021/10/28 07:14:24;;;;;;;0.17;0.17;;;5.40;99.90;;;;;;5070684;28;20040;-62
2021/10/28 07:27:24;;;;;;;1.02;0.98;;;5.50;99.90;;;;;;5054392;28;20116;-62
2021/10/28 08:21:25;;;;;;;5.53;2.13;;;7.70;99.90;;;;;;5053570;28;20041;-62
2021/10/28 08:24:08;;;;;;;0.80;0.80;;;7.70;99.90;;;;;;5068958;28;20029;-63
2021/10/28 08:29:31;;;;;;;0.88;0.88;;;7.80;99.90;;;;;;5052941;28;20099;-62
2021/10/28 08:31:57;;;;;;;0.50;0.50;;;7.90;99.90;;;;;;5032288;28;20087;-63
2021/10/28 08:34:37;;;;;;;0.60;0.60;;;7.80;99.90;;;;;;5048869;28;20029;-62
2021/10/28 08:37:16;;;;;;;0.57;0.57;;;7.90;99.90;;;;;;5047369;28;20036;-63
2021/10/28 08:39:51;;;;;;;0.40;0.40;;;7.90;99.90;;;;;;5032393;28;20041;-63
2021/10/28 08:42:22;;;;;;;1.95;1.73;;;7.90;99.90;;;;;;5048536;28;20034;-62
2021/10/28 08:44:55;;;;;;;5.03;2.92;;;7.90;99.90;;;;;;5048604;28;20053;-62
2021/10/28 08:47:22;;;;;;;0.40;0.40;;;7.90;99.90;;;;;;5031394;28;20029;-62
2021/10/28 08:50:00;;;;;;;1.88;1.15;;;7.90;99.90;;;;;;5033581;28;20041;-62
2021/10/28 08:52:41;;;;;;;0.45;0.45;;;8.00;99.90;;;;;;5047363;28;20378;-62
2021/10/28 08:58:19;;;;;;;0.28;0.28;;;8.10;99.90;;;;;;5033051;28;20471;-62
2021/10/28 09:24:23;;;;;;;0.68;0.68;;;8.10;99.90;;;;;;5032568;28;20033;-62
2021/10/28 09:27:06;;;;;;;2.28;2.08;;;8.20;99.90;;;;;;5046280;28;20030;-62
2021/10/28 09:51:52;;;;;;;6.93;2.08;;;8.50;99.90;;;;;;5033548;28;20080;-62
2021/10/28 09:57:47;;;;;;;2.72;1.05;;;8.50;99.90;;;;;;5046942;28;20034;-62
2021/10/28 10:00:14;;;;;;;1.02;0.75;;;8.70;99.90;;;;;;5033076;28;20033;-62
2021/10/28 10:02:46;;;;;;;0.40;0.40;;;8.70;99.90;;;;;;5032602;28;20034;-62
2021/10/28 10:05:23;;;;;;;1.30;1.20;;;8.60;99.90;;;;;;5031565;28;20076;-62
2021/10/28 10:07:53;;;;;;;0.70;0.70;;;8.70;99.90;;;;;;5033054;28;20037;-62
2021/10/28 10:10:25;;;;;;;0.55;0.52;;;8.80;99.90;;;;;;5031054;28;20069;-62
2021/10/28 10:12:52;;;;;;;0.70;0.63;;;8.90;99.90;;;;;;5031908;28;20556;-62
2021/10/28 10:15:18;;;;;;;0.20;0.20;;;8.90;99.90;;;;;;5047230;28;20041;-62
2021/10/28 10:18:01;;;;;;;1.08;0.73;;;9.00;99.90;;;;;;5032307;28;20080;-62
2021/10/28 10:26:05;;;;;;;11.23;1.70;;;9.00;99.90;;;;;;5051693;28;20040;-62
2021/10/28 11:28:14;;;;;;;0.25;0.25;;;9.10;99.90;;;;;;5054583;28;20032;-61
2021/10/28 12:22:50;;;;;;;7.85;4.47;;;9.90;99.90;;;;;;5052364;28;20108;-61
2021/10/28 13:28:26;;;;;;;2.38;2.13;;;13.50;99.90;;;;;;5065672;28;20040;-63
2021/10/28 13:37:49;;;;;;;2.47;1.83;;;14.40;99.90;;;;;;5052135;28;20087;-63
2021/10/28 13:50:15;;;;;;;4.45;3.20;;;14.90;99.90;;;;;;5052269;28;20475;-63
2021/10/28 14:17:33;;;;;;;0.85;0.60;;;14.70;99.90;;;;;;5065003;28;20021;-63
2021/10/28 14:27:03;;;;;;;0.82;0.82;;;14.30;99.90;;;;;;5051752;28;20108;-63
2021/10/28 14:38:12;;;;;;;4.68;1.63;;;15.30;99.90;;;;;;5051087;28;20063;-64
2021/10/28 15:02:37;;;;;;;4.03;2.20;;;15.60;99.90;;;;;;5055041;28;20370;-63
2021/10/28 15:29:41;;;;;;;2.38;1.10;;;16.20;99.90;;;;;;5054557;28;20079;-63
2021/10/28 15:35:09;;;;;;;6.97;4.05;;;16.70;99.90;;;;;;5054928;28;20095;-66
2021/10/28 15:37:54;;;;;;;2.10;1.48;;;16.30;99.90;;;;;;5070256;28;20071;-66
2021/10/28 15:57:09;;;;;;;6.85;3.28;;;14.30;99.90;;;;;;5073927;28;20035;-66
2021/10/28 16:24:08;;;;;;;5.88;1.75;;;10.80;99.90;;;;;;5053488;28;20048;-64
2021/10/28 16:26:34;;;;;;;3.92;2.10;;;10.70;99.90;;;;;;5053348;28;20029;-63
2021/10/28 16:29:03;;;;;;;9.70;2.58;;;10.50;99.90;;;;;;5053684;28;20037;-66
2021/10/28 16:31:29;;;;;;;0.68;0.68;;;10.40;99.90;;;;;;5068281;28;20454;-64
2021/10/28 16:33:55;;;;;;;1.55;1.35;;;10.30;99.90;;;;;;5068916;28;20104;-63
2021/10/28 16:36:24;;;;;;;4.18;1.45;;;10.20;99.90;;;;;;5052073;28;20059;-66
2021/10/28 16:38:51;;;;;;;1.67;1.58;;;10.10;99.90;;;;;;5053265;28;20107;-65
2021/10/28 16:41:17;;;;;;;3.03;2.33;;;10.10;99.90;;;;;;5078788;28;20123;-65
2021/10/28 16:43:42;;;;;;;0.45;0.40;;;9.90;99.90;;;;;;5062905;28;20457;-70
2021/10/28 16:46:09;;;;;;;0.50;0.50;;;9.80;99.90;;;;;;5053128;28;20037;-62
2021/10/28 16:48:36;;;;;;;1.35;1.30;;;9.70;99.90;;;;;;5053143;28;20401;-64
2021/10/28 16:51:04;;;;;;;0.30;0.30;;;9.60;99.90;;;;;;5069132;28;20466;-63
2021/10/28 16:53:30;;;;;;;5.63;2.28;;;9.50;99.90;;;;;;5068422;28;20033;-63
2021/10/28 16:55:56;;;;;;;1.08;1.02;;;9.50;99.90;;;;;;5053143;28;20075;-64
2021/10/28 16:58:22;;;;;;;1.80;0.77;;;9.40;99.90;;;;;;5068925;28;20442;-66
2021/10/28 17:00:50;;;;;;;0.40;0.40;;;9.30;99.90;;;;;;5052955;28;20028;-64
2021/10/28 17:03:16;;;;;;;3.60;3.30;;;9.30;99.90;;;;;;5052804;28;20044;-64
2021/10/28 17:05:44;;;;;;;4.82;2.78;;;9.20;99.90;;;;;;5068300;28;20104;-62
2021/10/28 17:08:10;;;;;;;1.92;1.83;;;9.20;99.90;;;;;;5052643;28;20482;-64
2021/10/28 17:10:36;;;;;;;3.72;2.63;;;9.10;99.90;;;;;;5052458;28;20064;-61
2021/10/28 17:13:02;;;;;;;1.30;1.20;;;9.00;99.90;;;;;;5053072;28;20374;-63
2021/10/28 17:15:28;;;;;;;2.35;2.17;;;9.00;99.90;;;;;;5052733;28;20021;-61
2021/10/28 17:17:56;;;;;;;1.65;1.20;;;8.90;99.90;;;;;;5052529;28;20421;-64
2021/10/28 17:20:23;;;;;;;0.98;0.98;;;8.80;99.90;;;;;;5052320;28;20467;-64
2021/10/28 17:22:49;;;;;;;14.70;2.75;;;8.80;99.90;;;;;;5052625;28;20110;-64
2021/10/28 17:25:20;;;;;;;0.30;0.30;;;8.80;99.90;;;;;;5051249;28;20504;-65
2021/10/28 17:27:48;;;;;;;0.85;0.70;;;8.70;99.90;;;;;;5052597;28;20037;-63
2021/10/28 17:30:16;;;;;;;4.30;2.13;;;8.70;99.90;;;;;;5052673;28;20163;-62
2021/10/28 17:32:44;;;;;;;1.40;1.30;;;8.60;99.90;;;;;;5067880;28;20082;-64
2021/10/28 17:35:11;;;;;;;2.72;1.08;;;8.60;99.90;;;;;;5067774;28;20619;-62
2021/10/28 17:37:40;;;;;;;3.53;2.50;;;8.60;99.90;;;;;;5067805;28;20036;-64
2021/10/28 17:40:07;;;;;;;1.35;1.25;;;8.60;99.90;;;;;;5052410;28;20025;-65
2021/10/28 17:42:35;;;;;;;1.27;1.23;;;8.50;99.90;;;;;;5067418;28;20036;-65
2021/10/28 17:45:02;;;;;;;0.77;0.77;;;8.50;99.90;;;;;;5052036;28;20036;-64
2021/10/28 17:47:29;;;;;;;1.63;1.52;;;8.40;99.90;;;;;;5052053;28;20160;-65
2021/10/28 17:49:56;;;;;;;2.03;1.80;;;8.40;99.90;;;;;;5067406;28;20037;-64
2021/10/28 17:52:22;;;;;;;1.83;1.25;;;8.30;99.90;;;;;;5051975;28;20037;-63
2021/10/28 17:54:48;;;;;;;3.63;2.15;;;8.30;99.90;;;;;;5051770;28;20035;-65
2021/10/28 17:57:15;;;;;;;6.30;2.42;;;8.30;99.90;;;;;;5051568;28;20474;-67
2021/10/28 17:59:45;;;;;;;1.20;1.15;;;8.20;99.90;;;;;;5067572;28;20029;-67
2021/10/28 18:02:11;;;;;;;4.25;3.22;;;8.20;99.90;;;;;;5066936;28;20033;-65
2021/10/28 18:04:37;;;;;;;1.30;0.47;;;8.20;99.90;;;;;;5051928;28;20065;-66
2021/10/28 18:07:03;;;;;;;1.85;1.40;;;8.10;99.90;;;;;;5052170;28;20029;-67
2021/10/28 18:09:29;;;;;;;1.55;1.45;;;8.10;99.90;;;;;;5067628;28;20488;-66
2021/10/28 18:11:56;;;;;;;6.13;3.60;;;8.10;99.90;;;;;;5067599;28;20032;-65
2021/10/28 18:14:26;;;;;;;2.67;1.30;;;8.00;99.90;;;;;;5051965;28;20029;-69
2021/10/28 18:16:52;;;;;;;2.53;2.33;;;8.00;99.90;;;;;;5050339;28;20037;-64
2021/10/28 18:19:18;;;;;;;2.60;1.63;;;8.00;99.90;;;;;;5069234;28;20176;-69
2021/10/28 18:21:47;;;;;;;0.77;0.77;;;8.00;99.90;;;;;;5055590;28;20045;-70
2021/10/28 18:24:14;;;;;;;6.07;4.35;;;8.00;99.90;;;;;;5055765;28;20493;-69
2021/10/28 18:26:41;;;;;;;7.05;4.20;;;7.90;99.90;;;;;;5070869;28;20072;-69
2021/10/28 18:29:07;;;;;;;2.85;2.60;;;7.90;99.90;;;;;;5071486;28;20123;-68
2021/10/28 18:31:34;;;;;;;3.75;3.45;;;7.90;99.90;;;;;;5071243;28;20029;-68
2021/10/28 18:34:01;;;;;;;0.57;0.57;;;7.80;99.90;;;;;;5071185;28;20033;-66
2021/10/28 18:36:33;;;;;;;2.88;2.28;;;7.80;99.90;;;;;;5054222;28;20102;-68
2021/10/28 18:39:00;;;;;;;4.47;3.05;;;7.70;99.90;;;;;;5071002;28;20044;-67
2021/10/28 18:41:29;;;;;;;5.30;1.83;;;7.70;99.90;;;;;;5055558;28;20535;-69
2021/10/28 18:43:55;;;;;;;1.95;1.85;;;7.70;99.90;;;;;;5055656;28;20040;-67
2021/10/28 18:46:22;;;;;;;1.95;1.15;;;7.70;99.90;;;;;;5037625;28;20033;-68
2021/10/28 18:49:00;;;;;;;9.57;5.15;;;7.70;99.90;;;;;;5050717;28;20120;-68
2021/10/28 18:51:27;;;;;;;2.22;2.05;;;7.60;99.90;;;;;;5007315;28;20045;-68
2021/10/28 18:53:53;;;;;;;5.10;3.20;;;7.70;99.90;;;;;;5051285;28;20032;-68
2021/10/28 18:56:20;;;;;;;24.25;2.45;;;7.70;99.90;;;;;;5070010;28;20378;-68
2021/10/28 18:58:47;;;;;;;5.28;3.35;;;7.70;99.90;;;;;;5070237;28;20052;-68
2021/10/28 19:01:15;;;;;;;3.42;2.10;;;7.70;99.90;;;;;;5054954;28;20521;-70
2021/10/28 19:03:44;;;;;;;2.97;2.78;;;7.70;99.90;;;;;;5054334;28;20044;-68
2021/10/28 19:06:11;;;;;;;2.28;2.13;;;7.60;99.90;;;;;;5054826;28;20041;-68
2021/10/28 19:08:39;;;;;;;2.25;1.85;;;7.60;99.90;;;;;;5070339;28;20041;-66
2021/10/28 19:11:06;;;;;;;6.20;4.97;;;7.50;99.90;;;;;;5055075;28;20029;-70
2021/10/28 19:13:44;;;;;;;1.08;1.08;;;7.50;99.90;;;;;;5055039;28;20063;-66
2021/10/28 19:16:13;;;;;;;0.47;0.47;;;7.50;99.90;;;;;;5051137;28;20025;-67
2021/10/28 19:18:40;;;;;;;2.95;2.72;;;7.50;99.90;;;;;;5053884;28;20127;-66
2021/10/28 19:21:06;;;;;;;4.13;3.65;;;7.50;99.90;;;;;;5054656;28;20094;-66
2021/10/28 19:23:33;;;;;;;2.63;2.42;;;7.40;99.90;;;;;;5053850;28;20043;-66
2021/10/28 19:25:59;;;;;;;11.63;5.35;;;7.40;99.90;;;;;;5060377;28;20025;-66
2021/10/28 19:28:26;;;;;;;1.70;1.55;;;7.40;99.90;;;;;;5053281;28;20565;-66
2021/10/28 19:30:59;;;;;;;1.42;1.33;;;7.40;99.90;;;;;;5068937;28;20075;-66
2021/10/28 19:33:37;;;;;;;3.45;3.15;;;7.40;99.90;;;;;;5051877;28;20037;-66
2021/10/28 19:36:07;;;;;;;6.63;4.03;;;7.40;99.90;;;;;;5050142;28;20466;-66
2021/10/28 19:46:33;;;;;;;3.63;3.25;;;7.20;99.90;;;;;;5033702;28;20025;-66
2021/10/28 19:49:00;;;;;;;1.58;1.48;;;7.20;99.90;;;;;;5033275;28;20091;-66
2021/10/28 19:51:27;;;;;;;1.95;1.85;;;7.20;99.90;;;;;;5048611;28;20060;-66
2021/10/28 19:53:53;;;;;;;0.10;0.10;;;7.20;99.90;;;;;;5048970;28;20116;-66
2021/10/28 19:56:20;;;;;;;2.65;1.48;;;7.20;99.90;;;;;;5034304;28;20033;-65
2021/10/28 19:58:56;;;;;;;3.17;2.97;;;7.30;99.90;;;;;;5032791;28;20033;-66
2021/10/28 20:01:33;;;;;;;2.17;1.55;;;7.30;99.90;;;;;;5066843;28;20474;-66
2021/10/28 20:04:13;;;;;;;4.07;2.40;;;7.40;99.90;;;;;;5066693;28;20033;-66
2021/10/28 20:06:55;;;;;;;2.35;2.25;;;7.40;99.90;;;;;;5034836;28;20037;-66
2021/10/28 20:22:46;;;;;;;2.83;2.55;;;7.30;99.90;;;;;;5033877;28;20750;-66
2021/10/28 20:25:18;;;;;;;1.80;1.70;;;7.30;99.90;;;;;;5049352;28;20029;-66
2021/10/28 20:27:48;;;;;;;1.40;1.02;;;7.30;99.90;;;;;;5049316;28;20068;-66
2021/10/28 20:30:17;;;;;;;0.50;0.50;;;7.30;99.90;;;;;;5034205;28;20402;-66
2021/10/28 20:32:43;;;;;;;1.30;1.20;;;7.20;99.90;;;;;;5048879;28;20055;-66
2021/10/28 20:37:52;;;;;;;3.53;3.15;;;7.20;99.90;;;;;;5033548;28;20029;-65
2021/10/28 20:40:18;;;;;;;0.47;0.47;;;7.10;99.90;;;;;;5048951;28;20033;-66
2021/10/28 20:42:48;;;;;;;0.75;0.75;;;7.10;99.90;;;;;;5032679;28;20144;-66
2021/10/28 20:45:23;;;;;;;0.32;0.32;;;7.10;99.90;;;;;;5033787;28;20107;-66
2021/10/28 20:47:52;;;;;;;2.30;1.88;;;7.10;99.90;;;;;;5048712;28;20025;-66
2021/10/28 20:50:22;;;;;;;5.97;1.95;;;7.10;99.90;;;;;;5048598;28;20033;-65
2021/10/28 20:52:50;;;;;;;3.83;3.03;;;7.10;99.90;;;;;;5048463;28;20030;-66
2021/10/28 20:55:16;;;;;;;2.80;2.33;;;7.20;99.90;;;;;;5048508;28;20029;-66
2021/10/28 20:57:42;;;;;;;4.03;1.58;;;7.30;99.90;;;;;;5033433;28;20052;-66
2021/10/28 21:00:13;;;;;;;2.25;1.75;;;7.30;99.90;;;;;;5033507;28;20410;-66
2021/10/28 21:02:40;;;;;;;3.40;3.10;;;7.40;99.90;;;;;;5033481;28;20029;-65
2021/10/28 21:05:12;;;;;;;6.10;2.83;;;7.40;99.90;;;;;;5048380;28;20065;-65
2021/10/28 21:07:41;;;;;;;2.30;2.20;;;7.40;99.90;;;;;;5048203;28;20530;-65
2021/10/28 21:10:11;;;;;;;0.82;0.82;;;7.40;99.90;;;;;;5033043;28;20474;-65
2021/10/28 21:12:37;;;;;;;3.17;1.85;;;7.40;99.90;;;;;;5048507;28;20032;-65
2021/10/28 21:15:05;;;;;;;1.20;0.57;;;7.50;99.90;;;;;;5032686;28;20034;-66
2021/10/28 21:17:31;;;;;;;1.48;1.27;;;7.40;99.90;;;;;;5048503;28;20049;-65
2021/10/28 21:19:56;;;;;;;3.05;2.75;;;7.50;99.90;;;;;;5048148;28;20047;-66
2021/10/28 21:22:23;;;;;;;0.90;0.90;;;7.50;99.90;;;;;;5032779;28;20485;-66
2021/10/28 21:24:50;;;;;;;2.97;2.78;;;7.50;99.90;;;;;;5032681;28;20042;-66
2021/10/28 21:27:20;;;;;;;8.35;2.03;;;7.50;99.90;;;;;;5047935;28;20498;-66
2021/10/28 21:29:47;;;;;;;1.65;1.55;;;7.50;99.90;;;;;;5048118;28;20103;-66
2021/10/28 21:32:14;;;;;;;0.93;0.93;;;7.50;99.90;;;;;;5032960;28;20437;-66
2021/10/28 21:34:43;;;;;;;3.25;1.95;;;7.50;99.90;;;;;;5032836;28;20090;-66
2021/10/28 21:37:13;;;;;;;1.58;1.48;;;7.50;99.90;;;;;;5032687;28;20033;-66
2021/10/28 21:39:40;;;;;;;6.88;2.40;;;7.50;99.90;;;;;;5032522;28;20030;-66
2021/10/28 21:42:07;;;;;;;2.83;1.25;;;7.50;99.90;;;;;;5032943;28;20099;-65
2021/10/28 21:44:36;;;;;;;2.60;2.40;;;7.50;99.90;;;;;;5047599;28;20029;-65
2021/10/28 21:47:03;;;;;;;1.55;1.45;;;7.60;99.90;;;;;;5032210;28;20021;-65
2021/10/28 21:49:29;;;;;;;0.75;0.75;;;7.60;99.90;;;;;;5032661;28;20478;-67
2021/10/28 21:52:06;;;;;;;2.97;2.53;;;7.60;99.90;;;;;;5032331;28;20036;-66
2021/10/28 21:57:06;;;;;;;2.63;1.80;;;7.60;99.90;;;;;;5032095;28;20045;-66
2021/10/28 21:59:57;;;;;;;1.70;1.40;;;7.60;99.90;;;;;;5046880;28;20060;-66
2021/10/28 22:05:20;;;;;;;5.88;2.67;;;7.50;99.90;;;;;;5047425;28;20395;-66
2021/10/28 22:24:28;;;;;;;0.30;0.30;;;7.60;99.90;;;;;;5031853;28;20049;-67
2021/10/28 22:26:54;;;;;;;1.83;1.70;;;7.60;99.90;;;;;;5047274;28;20025;-66